Time;durP1;ratioP1;P1;durP2;ratioP2;P2;SDS_P1;SDS_P2;PMS_P1;PMS_P2;Temp;Humidity;BMP_temperature;BMP_pressure;BME280_temperature;BME280_humidity;BME280_pressure;Samples;Min_cycle;Max_cycle;Signal;HPM_P1;HPM_P2
2021/10/28 00:14:24;;;;;;;20.75;14.55;;;5.30;99.90;;;;;;1862223;76;21166;-82
2021/10/28 00:16:51;;;;;;;23.83;13.90;;;5.30;99.90;;;;;;1870282;75;21260;-81
2021/10/28 00:19:18;;;;;;;23.50;14.55;;;5.30;99.90;;;;;;1858908;76;21298;-81
2021/10/28 00:21:44;;;;;;;16.62;13.50;;;5.30;99.90;;;;;;1886593;75;21207;-80
2021/10/28 00:24:11;;;;;;;18.95;13.28;;;5.30;99.90;;;;;;1872993;76;21088;-80
2021/10/28 00:26:37;;;;;;;22.70;13.78;;;5.20;99.90;;;;;;1871469;76;21138;-82
2021/10/28 00:29:03;;;;;;;21.15;14.83;;;5.20;99.90;;;;;;1877212;75;21100;-80
2021/10/28 00:31:29;;;;;;;22.42;15.18;;;5.20;99.90;;;;;;1868768;76;21448;-80
2021/10/28 00:33:55;;;;;;;21.80;14.68;;;5.20;99.90;;;;;;1861870;75;21548;-81
2021/10/28 00:36:22;;;;;;;25.68;14.75;;;5.10;99.90;;;;;;1876522;76;21354;-80
2021/10/28 00:38:51;;;;;;;24.12;14.90;;;5.10;99.90;;;;;;1873639;76;21083;-81
2021/10/28 00:41:18;;;;;;;23.30;14.50;;;5.00;99.90;;;;;;1868779;76;21108;-81
2021/10/28 00:43:49;;;;;;;22.50;14.25;;;5.00;99.90;;;;;;1873847;76;21073;-80
2021/10/28 00:46:16;;;;;;;20.50;14.83;;;5.00;99.90;;;;;;1872887;75;21088;-81
2021/10/28 00:48:43;;;;;;;23.35;15.72;;;5.00;99.90;;;;;;1872827;76;21072;-81
2021/10/28 00:51:10;;;;;;;23.07;16.23;;;4.90;99.90;;;;;;1878764;76;21154;-80
2021/10/28 00:53:36;;;;;;;26.90;16.50;;;5.00;99.90;;;;;;1877620;76;21256;-80
2021/10/28 00:56:02;;;;;;;29.35;16.50;;;5.00;99.90;;;;;;1862244;76;21158;-81
2021/10/28 00:58:29;;;;;;;24.60;15.85;;;5.10;99.90;;;;;;1866245;75;21149;-80
2021/10/28 01:00:55;;;;;;;26.70;15.55;;;5.00;99.90;;;;;;1877394;76;21150;-80
2021/10/28 01:03:21;;;;;;;24.98;16.40;;;5.00;99.90;;;;;;1870812;75;21086;-80
2021/10/28 01:05:47;;;;;;;35.40;15.13;;;4.90;99.90;;;;;;1872687;75;21157;-81
2021/10/28 01:08:16;;;;;;;33.18;16.40;;;5.00;99.90;;;;;;1865642;76;21222;-81
2021/10/28 01:10:41;;;;;;;23.22;15.43;;;5.00;99.90;;;;;;1864335;74;21113;-81
2021/10/28 01:13:08;;;;;;;23.35;16.00;;;4.90;99.90;;;;;;1872862;76;21162;-79
2021/10/28 01:15:34;;;;;;;24.52;15.58;;;4.90;99.90;;;;;;1875924;76;21319;-81
2021/10/28 01:18:00;;;;;;;21.68;15.32;;;4.90;99.90;;;;;;1869511;76;21069;-81
2021/10/28 01:20:26;;;;;;;20.27;14.75;;;4.80;99.90;;;;;;1878730;76;21210;-82
2021/10/28 01:22:52;;;;;;;19.77;13.18;;;4.80;99.90;;;;;;1863720;76;21212;-81
2021/10/28 01:25:18;;;;;;;20.00;13.32;;;4.70;99.90;;;;;;1871381;76;21153;-81
2021/10/28 01:27:45;;;;;;;23.30;15.48;;;4.70;99.90;;;;;;1845515;76;21057;-80
2021/10/28 01:30:11;;;;;;;23.20;13.68;;;4.80;99.90;;;;;;1871687;75;21060;-81
2021/10/28 01:32:37;;;;;;;20.50;14.05;;;4.80;99.90;;;;;;1876007;76;21233;-81
2021/10/28 01:35:03;;;;;;;25.17;15.38;;;4.80;99.90;;;;;;1857296;76;21128;-82
2021/10/28 01:37:29;;;;;;;17.25;13.43;;;4.80;99.90;;;;;;1881653;76;21079;-81
2021/10/28 01:39:55;;;;;;;24.90;14.07;;;4.80;99.90;;;;;;1870699;75;21139;-81
2021/10/28 01:42:21;;;;;;;23.85;14.58;;;4.70;99.90;;;;;;1868949;76;21088;-81
2021/10/28 01:44:48;;;;;;;25.45;14.55;;;4.70;99.90;;;;;;1857611;76;21156;-79
2021/10/28 01:47:16;;;;;;;22.48;13.75;;;4.70;99.90;;;;;;1873186;76;21162;-80
2021/10/28 01:49:42;;;;;;;25.20;15.55;;;4.70;99.90;;;;;;1868734;74;21109;-83
2021/10/28 01:52:08;;;;;;;21.80;15.48;;;4.70;99.90;;;;;;1866783;76;21172;-81
2021/10/28 01:54:34;;;;;;;22.70;16.35;;;4.60;99.90;;;;;;1869990;76;21057;-82
2021/10/28 01:57:00;;;;;;;26.70;16.27;;;4.60;99.90;;;;;;1864932;76;21085;-80
2021/10/28 01:59:26;;;;;;;28.65;15.95;;;4.50;99.90;;;;;;1866227;75;21088;-81
2021/10/28 02:01:52;;;;;;;27.87;14.80;;;4.50;99.90;;;;;;1866174;75;21562;-81
2021/10/28 02:04:19;;;;;;;22.20;15.72;;;4.40;99.90;;;;;;1867305;76;21507;-81
2021/10/28 02:06:45;;;;;;;26.30;15.08;;;4.40;99.90;;;;;;1862655;76;21096;-82
2021/10/28 02:09:12;;;;;;;22.37;14.60;;;4.40;99.90;;;;;;1870890;76;21219;-80
2021/10/28 02:11:38;;;;;;;26.97;16.17;;;4.40;99.90;;;;;;1871243;76;21547;-81
2021/10/28 02:14:04;;;;;;;29.48;17.07;;;4.20;99.90;;;;;;1878278;75;21551;-80
2021/10/28 02:16:31;;;;;;;26.20;16.02;;;4.30;99.90;;;;;;1873153;76;21496;-80
2021/10/28 02:18:57;;;;;;;22.65;14.40;;;4.30;99.90;;;;;;1880422;75;21107;-80
2021/10/28 02:21:23;;;;;;;23.20;15.20;;;4.40;99.90;;;;;;1863665;75;21182;-80
2021/10/28 02:23:49;;;;;;;27.50;15.75;;;4.40;99.90;;;;;;1859599;75;21091;-77
2021/10/28 02:26:16;;;;;;;24.92;14.98;;;4.40;99.90;;;;;;1860981;75;21084;-79
2021/10/28 02:28:42;;;;;;;22.40;15.23;;;4.40;99.90;;;;;;1866722;74;21092;-78
2021/10/28 02:31:08;;;;;;;28.23;15.95;;;4.30;99.90;;;;;;1869157;76;21512;-79
2021/10/28 02:33:34;;;;;;;30.37;17.02;;;4.30;99.90;;;;;;1883466;75;21547;-80
2021/10/28 02:36:00;;;;;;;29.35;16.45;;;4.30;99.90;;;;;;1876678;76;21072;-79
2021/10/28 02:38:27;;;;;;;26.17;17.17;;;4.20;99.90;;;;;;1870871;76;21087;-82
2021/10/28 02:40:53;;;;;;;33.45;17.00;;;4.20;99.90;;;;;;1866613;74;21135;-80
2021/10/28 02:43:19;;;;;;;27.40;17.17;;;4.10;99.90;;;;;;1876499;75;21079;-79
2021/10/28 02:45:47;;;;;;;26.50;16.45;;;4.10;99.90;;;;;;1872764;76;21479;-81
2021/10/28 02:48:13;;;;;;;31.42;17.27;;;4.10;99.90;;;;;;1863370;76;21154;-80
2021/10/28 02:50:40;;;;;;;29.55;17.27;;;4.00;99.90;;;;;;1860958;76;21150;-80
2021/10/28 02:53:06;;;;;;;22.27;16.23;;;4.00;99.90;;;;;;1872163;75;21096;-81
2021/10/28 02:55:32;;;;;;;28.05;16.60;;;4.00;99.90;;;;;;1872429;76;21175;-79
2021/10/28 02:57:58;;;;;;;21.30;14.80;;;4.00;99.90;;;;;;1865524;76;21205;-80
2021/10/28 03:00:24;;;;;;;22.32;14.73;;;3.90;99.90;;;;;;1875316;76;21155;-80
2021/10/28 03:02:51;;;;;;;23.10;14.43;;;3.90;99.90;;;;;;1877240;76;21146;-80
2021/10/28 03:05:17;;;;;;;20.37;13.62;;;3.90;99.90;;;;;;1872541;76;21068;-80
2021/10/28 03:07:43;;;;;;;21.68;13.60;;;3.90;99.90;;;;;;1874185;75;21084;-80
2021/10/28 03:10:10;;;;;;;26.90;14.63;;;3.90;99.90;;;;;;1868865;76;21150;-79
2021/10/28 03:12:38;;;;;;;27.48;14.35;;;3.80;99.90;;;;;;1876000;76;21210;-80
2021/10/28 03:15:05;;;;;;;15.13;12.13;;;4.00;99.90;;;;;;1874396;76;21602;-80
2021/10/28 03:27:48;;;;;;;27.07;16.00;;;4.10;99.90;;;;;;1866254;75;21459;-82
2021/10/28 03:30:14;;;;;;;28.47;17.85;;;4.20;99.90;;;;;;1860836;76;21166;-80
2021/10/28 03:32:41;;;;;;;26.55;17.50;;;4.30;99.90;;;;;;1876784;76;21504;-80
2021/10/28 03:35:09;;;;;;;41.37;18.45;;;4.30;99.90;;;;;;1875831;76;21241;-80
2021/10/28 03:37:46;;;;;;;46.10;18.37;;;4.30;99.90;;;;;;1861379;76;21207;-82
2021/10/28 03:43:14;;;;;;;25.72;16.90;;;4.30;99.90;;;;;;1866473;76;21107;-81
2021/10/28 03:48:20;;;;;;;26.45;16.10;;;4.30;99.90;;;;;;1799548;78;21085;-83
2021/10/28 03:56:00;;;;;;;36.33;16.70;;;4.40;99.90;;;;;;1873893;76;21280;-82
2021/10/28 04:16:34;;;;;;;37.70;14.13;;;4.10;99.90;;;;;;1815694;79;21104;-80
2021/10/28 04:16:48;;;;;;;105.43;16.05;;;4.00;99.90;;;;;;1864145;76;21133;-80
2021/10/28 04:29:52;;;;;;;117.62;16.62;;;3.90;99.90;;;;;;1875188;75;21069;-80
2021/10/28 04:32:18;;;;;;;64.58;16.00;;;3.90;99.90;;;;;;1861153;76;21092;-81
2021/10/28 04:34:44;;;;;;;54.18;16.17;;;3.80;99.90;;;;;;1879702;76;21084;-81
2021/10/28 04:37:11;;;;;;;61.08;16.15;;;3.80;99.90;;;;;;1873788;76;21171;-80
2021/10/28 04:39:37;;;;;;;56.42;15.95;;;3.80;99.90;;;;;;1873505;76;21580;-81
2021/10/28 04:42:03;;;;;;;57.80;17.05;;;3.90;99.90;;;;;;1861188;76;21496;-80
2021/10/28 04:44:29;;;;;;;39.35;16.32;;;3.90;99.90;;;;;;1872198;76;21649;-80
2021/10/28 04:46:55;;;;;;;44.10;15.63;;;3.90;99.90;;;;;;1872290;76;21480;-79
2021/10/28 04:49:21;;;;;;;92.37;15.20;;;4.00;99.90;;;;;;1873617;76;21512;-78
2021/10/28 04:51:50;;;;;;;54.03;15.18;;;3.90;99.90;;;;;;1865203;75;21562;-78
2021/10/28 04:54:15;;;;;;;122.22;16.42;;;4.00;99.90;;;;;;1851904;75;21195;-78
2021/10/28 04:56:41;;;;;;;18.77;13.40;;;3.90;99.90;;;;;;1866540;75;21153;-79
2021/10/28 04:59:08;;;;;;;28.47;14.03;;;4.10;99.90;;;;;;1861127;76;21091;-78
2021/10/28 05:01:35;;;;;;;28.40;14.07;;;4.10;99.90;;;;;;1866370;75;21234;-79
2021/10/28 05:04:01;;;;;;;22.10;13.98;;;4.00;99.90;;;;;;1866462;75;21167;-78
2021/10/28 05:06:27;;;;;;;27.05;13.65;;;4.00;99.90;;;;;;1861230;76;21192;-80
2021/10/28 05:08:53;;;;;;;72.37;13.90;;;3.90;99.90;;;;;;1879326;76;21568;-79
2021/10/28 05:11:19;;;;;;;72.87;14.33;;;3.90;99.90;;;;;;1867536;74;21545;-79
2021/10/28 05:13:45;;;;;;;40.15;12.45;;;3.80;99.90;;;;;;1869005;76;21463;-80
2021/10/28 05:16:11;;;;;;;22.98;12.40;;;3.80;99.90;;;;;;1875924;76;21081;-79
2021/10/28 05:18:42;;;;;;;42.27;13.83;;;3.70;99.90;;;;;;1879727;76;21080;-79
2021/10/28 05:21:08;;;;;;;35.50;13.20;;;3.70;99.90;;;;;;1876202;76;21158;-79
2021/10/28 05:23:34;;;;;;;29.60;13.78;;;3.70;99.90;;;;;;1868458;76;21081;-79
2021/10/28 05:26:00;;;;;;;25.17;12.53;;;3.80;99.90;;;;;;1869118;76;21081;-79
2021/10/28 05:28:27;;;;;;;43.42;12.93;;;3.90;99.90;;;;;;1877477;76;21488;-75
2021/10/28 05:30:53;;;;;;;47.83;12.23;;;3.80;99.90;;;;;;1876545;76;21445;-76
2021/10/28 05:33:19;;;;;;;55.20;11.57;;;3.70;99.90;;;;;;1876735;76;21225;-76
2021/10/28 05:35:45;;;;;;;47.78;11.60;;;3.70;99.90;;;;;;1865874;76;21154;-77
2021/10/28 05:38:11;;;;;;;25.40;13.28;;;3.60;99.90;;;;;;1878894;76;21158;-77
2021/10/28 05:40:37;;;;;;;76.85;11.50;;;3.60;99.90;;;;;;1878076;76;21162;-78
2021/10/28 05:43:04;;;;;;;46.90;11.68;;;3.50;99.90;;;;;;1869737;76;21178;-77
2021/10/28 05:45:31;;;;;;;68.10;11.57;;;3.50;99.90;;;;;;1876868;76;21088;-77
2021/10/28 05:47:58;;;;;;;25.37;11.70;;;3.50;99.90;;;;;;1875835;76;21092;-77
2021/10/28 05:50:24;;;;;;;24.07;11.53;;;3.60;99.90;;;;;;1872378;76;21150;-79
2021/10/28 05:52:52;;;;;;;48.17;11.08;;;3.60;99.90;;;;;;1854643;74;21594;-77
2021/10/28 05:55:19;;;;;;;53.65;11.85;;;3.60;99.90;;;;;;1866015;76;21102;-77
2021/10/28 05:57:45;;;;;;;19.45;10.25;;;3.70;99.90;;;;;;1869573;76;21132;-77
2021/10/28 06:00:12;;;;;;;50.00;11.08;;;3.60;99.90;;;;;;1880235;76;21061;-79
2021/10/28 06:02:38;;;;;;;56.45;11.80;;;3.60;99.90;;;;;;1876078;76;21228;-80
2021/10/28 06:05:04;;;;;;;30.88;11.85;;;3.60;99.90;;;;;;1872924;76;21091;-80
2021/10/28 06:07:30;;;;;;;18.52;10.75;;;3.50;99.90;;;;;;1876349;76;21476;-84
2021/10/28 06:09:56;;;;;;;25.45;11.40;;;3.60;99.90;;;;;;1867162;76;21158;-82
2021/10/28 06:12:23;;;;;;;34.25;11.25;;;3.70;99.90;;;;;;1861552;76;21118;-82
2021/10/28 06:14:49;;;;;;;25.05;10.58;;;3.90;99.90;;;;;;1880736;76;21076;-81
2021/10/28 06:17:18;;;;;;;20.68;10.35;;;3.90;99.90;;;;;;1874779;76;21448;-80
2021/10/28 06:19:44;;;;;;;35.68;11.20;;;3.80;99.90;;;;;;1863391;75;21119;-80
2021/10/28 06:22:10;;;;;;;23.92;10.60;;;3.70;99.90;;;;;;1874252;75;21143;-79
2021/10/28 06:24:36;;;;;;;47.48;11.53;;;3.80;99.90;;;;;;1874488;76;21170;-80
2021/10/28 06:27:02;;;;;;;23.65;12.07;;;3.80;99.90;;;;;;1861206;76;21073;-79
2021/10/28 06:29:29;;;;;;;22.02;12.55;;;3.80;99.90;;;;;;1863852;76;21089;-80
2021/10/28 06:31:56;;;;;;;47.55;10.88;;;3.80;99.90;;;;;;1876186;76;21080;-80
2021/10/28 06:34:25;;;;;;;51.02;13.13;;;3.90;99.90;;;;;;1856469;76;21124;-79
2021/10/28 06:36:50;;;;;;;39.85;12.45;;;3.80;99.90;;;;;;1868137;76;21513;-79
2021/10/28 06:39:17;;;;;;;59.08;13.15;;;3.80;99.90;;;;;;1856002;74;21190;-80
2021/10/28 06:41:43;;;;;;;22.93;12.53;;;3.70;99.90;;;;;;1870215;76;21159;-79
2021/10/28 06:44:09;;;;;;;32.65;12.13;;;3.80;99.90;;;;;;1876951;76;21104;-80
2021/10/28 06:46:35;;;;;;;30.52;11.35;;;3.90;99.90;;;;;;1871810;76;21081;-79
2021/10/28 06:49:04;;;;;;;16.37;11.80;;;3.90;99.90;;;;;;1861603;76;21147;-79
2021/10/28 06:51:29;;;;;;;41.42;12.30;;;3.90;99.90;;;;;;1871532;75;21115;-80
2021/10/28 07:04:46;;;;;;;82.30;12.93;;;4.00;99.90;;;;;;1868500;76;21168;-80
2021/10/28 07:07:12;;;;;;;34.92;10.32;;;4.00;99.90;;;;;;1869737;74;21539;-80
2021/10/28 07:09:47;;;;;;;23.02;13.03;;;4.00;99.90;;;;;;1874133;76;21080;-81
2021/10/28 07:14:44;;;;;;;121.33;12.28;;;4.00;99.90;;;;;;1863636;75;21117;-80
2021/10/28 07:17:23;;;;;;;79.58;13.68;;;3.90;99.90;;;;;;1857735;76;21202;-81
2021/10/28 07:19:54;;;;;;;59.53;13.38;;;3.90;99.90;;;;;;1865350;76;21214;-81
2021/10/28 07:22:20;;;;;;;;;;;4.00;99.90;;;;;;1873267;76;21069;-79
2021/10/28 07:28:13;;;;;;;28.83;11.30;;;4.00;99.90;;;;;;1880645;76;21504;-81
2021/10/28 07:32:51;;;;;;;21.62;11.95;;;4.00;99.90;;;;;;1881925;74;21076;-83
2021/10/28 08:05:28;;;;;;;29.50;12.28;;;4.70;99.90;;;;;;1862927;76;21072;-82
2021/10/28 08:18:33;;;;;;;40.65;15.63;;;4.60;99.90;;;;;;1875923;75;21077;-79
2021/10/28 08:21:15;;;;;;;41.63;14.47;;;4.60;99.90;;;;;;1879236;74;21132;-79
2021/10/28 08:29:03;;;;;;;23.20;13.75;;;4.80;99.90;;;;;;1871587;75;21103;-79
2021/10/28 08:31:25;;;;;;;33.15;14.33;;;5.10;99.90;;;;;;1877125;76;21120;-77
2021/10/28 08:33:50;;;;;;;19.37;12.25;;;5.20;99.90;;;;;;1864896;75;21097;-74
2021/10/28 08:36:24;;;;;;;22.55;13.20;;;5.40;99.90;;;;;;1879373;75;21519;-78
2021/10/28 08:38:46;;;;;;;16.42;11.10;;;5.50;99.90;;;;;;1878887;74;21114;-79
2021/10/28 08:41:16;;;;;;;43.42;11.55;;;5.80;99.90;;;;;;1863951;75;21076;-79
2021/10/28 08:43:44;;;;;;;18.23;10.55;;;5.90;99.90;;;;;;1877354;75;21097;-81
2021/10/28 08:46:13;;;;;;;16.10;9.73;;;5.90;99.90;;;;;;1870292;76;21113;-78
2021/10/28 08:48:43;;;;;;;20.12;8.80;;;5.90;99.90;;;;;;1873339;74;21110;-78
2021/10/28 08:51:20;;;;;;;16.23;10.18;;;5.90;99.90;;;;;;1877014;75;21582;-79
2021/10/28 08:54:03;;;;;;;9.48;8.58;;;6.10;99.90;;;;;;1870455;76;21087;-78
2021/10/28 09:26:28;;;;;;;7.25;6.55;;;8.00;99.90;;;;;;1866297;75;21077;-81
2021/10/28 09:28:55;;;;;;;11.15;7.80;;;8.40;99.90;;;;;;1867103;75;21078;-79
2021/10/28 09:31:20;;;;;;;11.05;7.58;;;8.40;99.90;;;;;;1874283;76;21146;-78
2021/10/28 09:34:09;;;;;;;11.28;7.72;;;8.30;99.90;;;;;;1876256;76;21492;-82
2021/10/28 09:44:40;;;;;;;7.67;6.85;;;10.10;99.90;;;;;;1878808;76;21155;-83
2021/10/28 09:47:19;;;;;;;8.63;6.60;;;10.10;99.90;;;;;;1871666;75;21161;-81
2021/10/28 09:49:57;;;;;;;10.00;7.05;;;9.70;99.90;;;;;;1870174;76;21619;-78
2021/10/28 09:52:28;;;;;;;9.68;7.05;;;9.90;99.90;;;;;;1864878;76;21090;-79
2021/10/28 09:54:59;;;;;;;9.88;7.95;;;10.30;99.90;;;;;;1879643;74;21128;-79
2021/10/28 09:59:59;;;;;;;9.30;7.90;;;11.40;99.90;;;;;;1867356;76;20190;-80
2021/10/28 10:03:15;;;;;;;9.75;6.83;;;11.20;99.90;;;;;;1876006;76;21091;-81
2021/10/28 10:04:54;;;;;;;10.72;8.30;;;11.30;99.90;;;;;;1837848;76;21639;-80
2021/10/28 10:07:21;;;;;;;9.90;7.37;;;11.70;99.90;;;;;;1869793;75;21205;-80
2021/10/28 10:09:47;;;;;;;9.28;7.40;;;12.00;99.90;;;;;;1871726;75;21142;-82
2021/10/28 10:12:14;;;;;;;10.58;6.55;;;12.60;99.90;;;;;;1877676;75;21159;-80
2021/10/28 10:14:40;;;;;;;9.45;6.87;;;13.00;99.90;;;;;;1878593;76;21076;-81
2021/10/28 10:17:06;;;;;;;8.93;7.58;;;12.70;99.90;;;;;;1876880;76;21291;-81
2021/10/28 10:19:32;;;;;;;13.68;7.80;;;12.70;99.90;;;;;;1868889;76;21279;-80
2021/10/28 10:22:02;;;;;;;8.90;7.58;;;13.00;99.90;;;;;;1879403;75;21150;-81
2021/10/28 10:24:41;;;;;;;12.50;7.70;;;13.00;99.90;;;;;;1871695;76;21076;-82
2021/10/28 10:27:15;;;;;;;11.28;8.90;;;13.50;99.90;;;;;;1858629;76;21521;-81
2021/10/28 10:29:39;;;;;;;10.03;8.43;;;13.90;99.90;;;;;;1871157;74;21193;-79
2021/10/28 11:21:16;;;;;;;12.07;9.38;;;17.50;99.90;;;;;;1858748;76;21081;-78
2021/10/28 11:26:33;;;;;;;11.88;10.55;;;17.00;99.90;;;;;;1861521;75;21217;-81
2021/10/28 11:29:09;;;;;;;26.62;10.80;;;16.20;99.90;;;;;;1857181;74;21084;-80
2021/10/28 12:20:46;;;;;;;14.03;7.65;;;19.30;99.90;;;;;;1859024;76;21105;-77
2021/10/28 12:44:26;;;;;;;7.62;6.67;;;21.10;99.90;;;;;;1868656;76;21489;-83
2021/10/28 12:49:32;;;;;;;10.98;7.22;;;21.60;99.90;;;;;;1861873;76;21106;-79
2021/10/28 12:57:12;;;;;;;8.40;6.62;;;21.40;99.90;;;;;;1871867;76;21539;-79
2021/10/28 13:02:37;;;;;;;6.95;6.28;;;20.90;99.90;;;;;;1866461;76;21526;-81
2021/10/28 13:05:17;;;;;;;9.60;6.25;;;21.10;99.90;;;;;;1874804;75;21117;-81
2021/10/28 13:50:45;;;;;;;10.60;5.85;;;21.00;99.90;;;;;;1874613;76;21578;-82
2021/10/28 13:56:06;;;;;;;6.60;5.35;;;20.70;99.90;;;;;;1863138;76;21073;-81
2021/10/28 14:14:43;;;;;;;7.17;5.65;;;22.00;99.90;;;;;;1852488;76;21088;-82
2021/10/28 14:15:10;;;;;;;4.70;4.20;;;21.50;99.90;;;;;;1880725;75;21080;-85
2021/10/28 14:38:38;;;;;;;8.30;4.85;;;22.10;99.90;;;;;;1876732;74;21465;-89
2021/10/28 15:30:12;;;;;;;9.30;5.40;;;20.30;99.90;;;;;;1879734;75;21234;-88
2021/10/28 15:33:10;;;;;;;6.90;4.42;;;20.00;99.90;;;;;;1871248;74;21114;-87
2021/10/28 15:35:45;;;;;;;5.17;3.95;;;19.70;99.90;;;;;;1872529;74;21179;-87
2021/10/28 15:37:54;;;;;;;4.17;3.02;;;19.70;99.90;;;;;;1846260;74;21188;-87
2021/10/28 15:43:21;;;;;;;4.33;3.12;;;19.70;99.90;;;;;;1861993;75;21071;-90
2021/10/28 16:23:30;;;;;;;7.72;5.87;;;13.00;99.90;;;;;;1872816;75;21080;-83
2021/10/28 16:25:56;;;;;;;9.55;6.30;;;12.80;99.90;;;;;;1865564;75;21554;-83
2021/10/28 16:28:25;;;;;;;13.05;6.28;;;12.60;99.90;;;;;;1883707;74;21076;-83
2021/10/28 16:30:51;;;;;;;8.08;5.35;;;12.50;99.90;;;;;;1882977;74;21481;-83
2021/10/28 16:33:17;;;;;;;9.63;5.50;;;12.40;99.90;;;;;;1881017;76;21151;-84
2021/10/28 16:35:44;;;;;;;12.05;6.10;;;12.20;99.90;;;;;;1858031;75;21089;-83
2021/10/28 16:38:10;;;;;;;10.85;5.50;;;12.10;99.90;;;;;;1867524;75;21075;-83
2021/10/28 16:40:36;;;;;;;8.15;4.92;;;12.00;99.90;;;;;;1877154;74;21118;-82
2021/10/28 16:43:02;;;;;;;8.28;5.45;;;11.90;99.90;;;;;;1854332;75;21107;-84
2021/10/28 16:45:28;;;;;;;16.37;5.17;;;11.70;99.90;;;;;;1877492;74;21449;-85
2021/10/28 16:47:55;;;;;;;11.38;5.67;;;11.60;99.90;;;;;;1863074;74;21734;-86
2021/10/28 16:50:24;;;;;;;12.37;5.17;;;11.50;99.90;;;;;;1880346;75;21080;-86
2021/10/28 16:52:49;;;;;;;7.42;5.53;;;11.40;99.90;;;;;;1872130;75;21091;-83
2021/10/28 16:55:15;;;;;;;9.25;5.72;;;11.30;99.90;;;;;;1861426;75;21116;-84
2021/10/28 16:57:44;;;;;;;11.50;5.87;;;11.10;99.90;;;;;;1869809;74;21076;-84
2021/10/28 17:00:09;;;;;;;9.15;5.50;;;11.10;99.90;;;;;;1881812;75;21226;-85
2021/10/28 17:02:35;;;;;;;8.10;5.62;;;11.00;99.90;;;;;;1884306;74;21148;-83
2021/10/28 17:05:02;;;;;;;8.05;4.97;;;10.90;99.90;;;;;;1879549;74;21162;-83
2021/10/28 17:07:28;;;;;;;8.48;5.55;;;10.80;99.90;;;;;;1881821;75;21166;-86
2021/10/28 17:09:54;;;;;;;10.03;5.55;;;10.80;99.90;;;;;;1878441;75;21075;-86
2021/10/28 17:12:21;;;;;;;7.67;5.22;;;10.80;99.90;;;;;;1877712;74;21160;-83
2021/10/28 17:14:48;;;;;;;8.50;4.92;;;10.60;99.90;;;;;;1866452;75;21096;-82
2021/10/28 17:17:15;;;;;;;8.93;4.53;;;10.50;99.90;;;;;;1867351;75;21069;-83
2021/10/28 17:19:42;;;;;;;8.88;4.50;;;10.50;99.90;;;;;;1872684;75;21178;-82
2021/10/28 17:22:08;;;;;;;6.92;4.55;;;10.40;99.90;;;;;;1878042;75;21092;-85
2021/10/28 17:24:40;;;;;;;7.20;4.42;;;10.20;99.90;;;;;;1873740;75;21079;-82
2021/10/28 17:27:05;;;;;;;6.58;4.53;;;10.20;99.90;;;;;;1882662;74;21127;-83
2021/10/28 17:29:31;;;;;;;5.90;4.55;;;10.20;99.90;;;;;;1862744;75;21072;-84
2021/10/28 17:31:57;;;;;;;9.65;4.55;;;10.10;99.90;;;;;;1873932;76;21154;-81
2021/10/28 17:34:23;;;;;;;6.75;4.78;;;10.20;99.90;;;;;;1870216;74;21157;-87
2021/10/28 17:36:52;;;;;;;7.05;4.65;;;10.00;99.90;;;;;;1870441;76;21062;-84
2021/10/28 17:39:17;;;;;;;8.50;4.87;;;10.00;99.90;;;;;;1873868;75;21520;-88
2021/10/28 17:41:43;;;;;;;8.48;4.83;;;10.00;99.90;;;;;;1866965;75;21252;-80
2021/10/28 17:44:09;;;;;;;9.55;5.28;;;9.90;99.90;;;;;;1880222;75;21538;-82
2021/10/28 17:46:36;;;;;;;6.95;4.85;;;9.80;99.90;;;;;;1878970;75;21441;-80
2021/10/28 17:49:02;;;;;;;6.28;5.08;;;9.70;99.90;;;;;;1885337;76;21569;-82
2021/10/28 17:51:29;;;;;;;8.78;4.75;;;9.70;99.90;;;;;;1859006;75;21073;-71
2021/10/28 17:53:55;;;;;;;11.85;5.20;;;9.60;99.90;;;;;;1867590;75;21499;-72
2021/10/28 17:56:22;;;;;;;5.83;4.37;;;9.50;99.90;;;;;;1859467;75;21154;-74
2021/10/28 17:58:48;;;;;;;6.90;4.95;;;9.40;99.90;;;;;;1853376;76;21162;-85
2021/10/28 18:01:25;;;;;;;;;;;;;;;;;;;;;
2021/10/28 18:03:42;;;;;;;8.03;4.65;;;9.20;99.90;;;;;;1861453;74;21090;-86
2021/10/28 18:06:08;;;;;;;9.48;4.03;;;9.10;99.90;;;;;;1871159;75;21057;-87
2021/10/28 18:08:34;;;;;;;6.92;4.55;;;9.20;99.90;;;;;;1882150;74;21149;-85
2021/10/28 18:11:00;;;;;;;6.45;4.58;;;9.10;99.90;;;;;;1881029;75;21213;-85
2021/10/28 18:15:57;;;;;;;7.78;5.10;;;9.00;99.90;;;;;;1851018;76;21058;-85
2021/10/28 18:18:24;;;;;;;9.80;5.05;;;9.00;99.90;;;;;;1862604;75;21069;-86
2021/10/28 18:20:50;;;;;;;9.23;5.35;;;8.90;99.90;;;;;;1861951;75;21162;-86
2021/10/28 18:23:16;;;;;;;6.12;4.92;;;8.90;99.90;;;;;;1876917;74;21079;-89
2021/10/28 18:25:42;;;;;;;7.47;4.80;;;8.80;99.90;;;;;;1870781;75;21144;-85
2021/10/28 18:28:09;;;;;;;8.83;5.30;;;8.80;99.90;;;;;;1866435;75;21081;-85
2021/10/28 18:30:37;;;;;;;8.98;5.95;;;8.80;99.90;;;;;;1881202;75;21080;-89
2021/10/28 18:33:03;;;;;;;9.85;5.78;;;8.70;99.90;;;;;;1856563;75;21327;-81
2021/10/28 18:35:29;;;;;;;7.40;5.20;;;8.70;99.90;;;;;;1856023;76;21198;-81
2021/10/28 18:37:55;;;;;;;9.38;5.15;;;8.70;99.90;;;;;;1877475;75;21087;-85
2021/10/28 18:40:22;;;;;;;7.30;5.47;;;8.60;99.90;;;;;;1851305;75;21154;-82
2021/10/28 18:42:49;;;;;;;9.45;5.00;;;8.50;99.90;;;;;;1858161;76;21151;-84
2021/10/28 18:45:15;;;;;;;11.75;5.50;;;8.50;99.90;;;;;;1861349;76;21162;-87
2021/10/28 18:47:43;;;;;;;8.58;5.62;;;8.50;99.90;;;;;;1881966;75;21216;-83
2021/10/28 18:50:09;;;;;;;7.72;5.85;;;8.40;99.90;;;;;;1879826;74;21533;-83
2021/10/28 18:52:35;;;;;;;20.68;5.92;;;8.30;99.90;;;;;;1865246;75;21641;-83
2021/10/28 18:55:02;;;;;;;6.83;5.53;;;8.30;99.90;;;;;;1873812;76;21131;-82
2021/10/28 18:57:28;;;;;;;8.40;5.42;;;8.20;99.90;;;;;;1871517;74;21097;-87
2021/10/28 18:59:55;;;;;;;9.45;5.30;;;8.20;99.90;;;;;;1873771;75;21075;-80
2021/10/28 19:02:24;;;;;;;12.88;5.62;;;8.20;99.90;;;;;;1882171;74;21153;-79
2021/10/28 19:04:50;;;;;;;6.25;5.17;;;8.20;99.90;;;;;;1860290;74;21515;-83
2021/10/28 19:07:16;;;;;;;9.65;5.55;;;8.10;99.90;;;;;;1874369;75;21153;-84
2021/10/28 19:09:42;;;;;;;20.95;5.72;;;8.10;99.90;;;;;;1871804;75;21609;-82
2021/10/28 19:12:08;;;;;;;6.42;5.50;;;8.00;99.90;;;;;;1858357;75;21571;-79
2021/10/28 19:14:38;;;;;;;11.43;5.37;;;7.90;99.90;;;;;;1862042;75;21523;-81
2021/10/28 19:17:02;;;;;;;9.43;5.85;;;7.90;99.90;;;;;;1876808;75;21093;-82
2021/10/28 19:19:28;;;;;;;8.73;5.55;;;7.90;99.90;;;;;;1864397;75;21098;-79
2021/10/28 19:21:55;;;;;;;10.58;5.78;;;7.80;99.90;;;;;;1861047;75;21194;-80
2021/10/28 19:24:21;;;;;;;10.35;6.40;;;7.80;99.90;;;;;;1865879;76;21052;-81
2021/10/28 19:26:47;;;;;;;17.35;6.92;;;7.80;99.90;;;;;;1880569;75;21708;-78
2021/10/28 19:29:14;;;;;;;8.48;6.47;;;7.70;99.90;;;;;;1879696;74;21091;-80
2021/10/28 19:31:53;;;;;;;11.80;6.78;;;7.70;99.90;;;;;;1886907;74;21150;-75
2021/10/28 19:34:13;;;;;;;8.63;5.90;;;7.70;99.90;;;;;;1878707;74;21120;-81
2021/10/28 19:39:42;;;;;;;10.28;5.97;;;7.60;99.90;;;;;;1871747;74;21135;-79
2021/10/28 19:47:15;;;;;;;13.90;6.03;;;7.50;99.90;;;;;;1887171;75;21214;-79
2021/10/28 19:49:42;;;;;;;7.78;6.30;;;7.50;99.90;;;;;;1884525;74;21092;-78
2021/10/28 19:52:08;;;;;;;8.70;6.10;;;7.40;99.90;;;;;;1870351;74;21158;-80
2021/10/28 19:54:35;;;;;;;8.25;5.90;;;7.40;99.90;;;;;;1874613;75;21572;-75
2021/10/28 19:57:01;;;;;;;9.30;5.83;;;7.40;99.90;;;;;;1872258;74;21095;-75
2021/10/28 19:59:32;;;;;;;6.83;5.42;;;7.30;99.90;;;;;;1874935;75;21653;-75
2021/10/28 20:01:58;;;;;;;13.68;6.55;;;7.30;99.90;;;;;;1880175;75;21240;-75
2021/10/28 20:04:33;;;;;;;9.15;6.35;;;7.30;99.90;;;;;;1866293;75;21267;-75
2021/10/28 20:22:35;;;;;;;15.23;7.50;;;7.10;99.90;;;;;;1876039;74;21458;-82
2021/10/28 20:25:02;;;;;;;11.83;8.05;;;7.00;99.90;;;;;;1868573;74;21128;-81
2021/10/28 20:27:28;;;;;;;14.58;8.63;;;7.00;99.90;;;;;;1878188;75;21056;-83
2021/10/28 20:29:55;;;;;;;11.45;8.03;;;6.90;99.90;;;;;;1884407;75;21188;-83
2021/10/28 20:32:21;;;;;;;16.70;8.10;;;6.90;99.90;;;;;;1863547;76;21167;-83
2021/10/28 20:37:18;;;;;;;;;;;6.80;99.90;;;;;;1890649;74;21182;-85
2021/10/28 20:39:44;;;;;;;11.78;8.03;;;6.80;99.90;;;;;;1873378;75;20150;-81
2021/10/28 20:42:11;;;;;;;11.50;8.38;;;6.80;99.90;;;;;;1874998;75;21053;-81
2021/10/28 20:44:38;;;;;;;18.27;9.83;;;6.80;99.90;;;;;;1883440;75;21612;-82
2021/10/28 20:47:04;;;;;;;16.55;9.80;;;6.70;99.90;;;;;;1869871;76;21158;-82
2021/10/28 20:49:30;;;;;;;23.27;10.75;;;6.70;99.90;;;;;;1872100;75;21158;-81
2021/10/28 20:51:56;;;;;;;16.10;9.65;;;6.70;99.90;;;;;;1876460;75;21116;-83
2021/10/28 20:54:22;;;;;;;18.32;10.68;;;6.60;99.90;;;;;;1856807;76;21080;-80
2021/10/28 20:56:48;;;;;;;18.30;11.15;;;6.60;99.90;;;;;;1883666;75;21074;-81
2021/10/28 20:59:15;;;;;;;15.68;10.90;;;6.60;99.90;;;;;;1885548;76;21091;-80
2021/10/28 21:01:41;;;;;;;16.50;11.30;;;6.50;99.90;;;;;;1882471;74;21268;-84